Terminal Aerodrome Forecast
Issued by NWS Atlanta, GA

Home | Current Version | Previous Version | Text Only | Print | Product List | Glossary On
Versions: 1 2 3 4 5 6 7 8 9 10 11 12 13
000
FTUS42 KFFC 212332
TAFCSG
TAF
KCSG 212332Z 2200/2224 07003KT P6SM SKC
     FM220800 06004KT 6SM BR FEW025
     FM221100 08006KT 6SM BR SCT015
     FM221500 07007KT P6SM BKN025
     FM222000 08007KT P6SM BKN035=

USA.gov is the U.S. government's official web portal to all federal, state and local government web resources and services.